Time;durP1;ratioP1;P1;durP2;ratioP2;P2;SDS_P1;SDS_P2;PMS_P1;PMS_P2;Temp;Humidity;BMP_temperature;BMP_pressure;BME280_temperature;BME280_humidity;BME280_pressure;Samples;Min_cycle;Max_cycle;Signal;HPM_P1;HPM_P2
2023/04/22 00:01:51;;;;;;;49.63;34.33;;;6.20;99.90;;;;;;5107250;28;20531;-61
2023/04/22 00:04:19;;;;;;;47.90;33.90;;;6.20;99.90;;;;;;5113785;28;20047;-61
2023/04/22 00:06:47;;;;;;;48.75;36.25;;;6.20;99.90;;;;;;5113795;28;20127;-62
2023/04/22 00:09:13;;;;;;;51.45;35.83;;;6.20;99.90;;;;;;5106608;28;20108;-62
2023/04/22 00:11:40;;;;;;;48.08;34.70;;;6.10;99.90;;;;;;5113071;28;20394;-61
2023/04/22 00:14:07;;;;;;;53.05;36.25;;;6.10;99.90;;;;;;5113640;28;20073;-62
2023/04/22 00:16:33;;;;;;;52.03;35.17;;;6.10;99.90;;;;;;5112145;28;20556;-62
2023/04/22 00:19:00;;;;;;;48.70;35.33;;;6.10;99.90;;;;;;5112584;28;20048;-61
2023/04/22 00:21:27;;;;;;;53.35;35.83;;;6.10;99.90;;;;;;5113313;28;20078;-62
2023/04/22 00:23:54;;;;;;;53.67;36.97;;;6.00;99.90;;;;;;5112575;28;20044;-61
2023/04/22 00:26:21;;;;;;;48.70;35.13;;;6.00;99.90;;;;;;5113698;28;20047;-62
2023/04/22 00:28:48;;;;;;;49.58;35.10;;;6.00;99.90;;;;;;5105818;28;20082;-60
2023/04/22 00:31:15;;;;;;;48.47;34.92;;;5.90;99.90;;;;;;5113223;28;20051;-59
2023/04/22 00:33:42;;;;;;;49.63;34.72;;;6.00;99.90;;;;;;5099583;28;20048;-61
2023/04/22 00:36:08;;;;;;;54.60;35.38;;;5.90;99.90;;;;;;5093575;28;20447;-61
2023/04/22 00:38:35;;;;;;;50.83;34.95;;;5.80;99.90;;;;;;5100192;28;20035;-59
2023/04/22 00:41:02;;;;;;;55.17;36.05;;;5.80;99.90;;;;;;5093292;28;20074;-61
2023/04/22 00:43:28;;;;;;;49.72;34.70;;;5.90;99.90;;;;;;5093084;28;20040;-60
2023/04/22 00:45:55;;;;;;;51.75;35.47;;;5.80;99.90;;;;;;5090555;28;20540;-60
2023/04/22 00:48:22;;;;;;;49.53;35.25;;;5.80;99.90;;;;;;5093153;28;20047;-61
2023/04/22 00:50:50;;;;;;;47.38;34.60;;;5.80;99.90;;;;;;5093794;28;20348;-61
2023/04/22 00:53:17;;;;;;;41.78;31.25;;;5.80;99.90;;;;;;5092410;28;20044;-60
2023/04/22 00:55:44;;;;;;;45.97;31.05;;;5.80;99.90;;;;;;5093378;28;20048;-60
2023/04/22 00:58:11;;;;;;;40.95;28.63;;;5.80;99.90;;;;;;5094101;28;20040;-60
2023/04/22 01:00:37;;;;;;;42.05;29.80;;;5.80;99.90;;;;;;5093793;28;20036;-61
2023/04/22 01:03:05;;;;;;;38.63;28.40;;;5.90;99.90;;;;;;5093296;28;20049;-61
2023/04/22 01:05:32;;;;;;;39.95;29.05;;;5.80;99.90;;;;;;5075542;28;20040;-60
2023/04/22 01:08:00;;;;;;;38.50;28.10;;;5.90;99.90;;;;;;5092457;28;20044;-62
2023/04/22 01:10:26;;;;;;;37.75;27.77;;;5.80;99.90;;;;;;5093326;28;20136;-61
2023/04/22 01:12:53;;;;;;;36.28;27.00;;;5.80;99.90;;;;;;5093019;28;20126;-62
2023/04/22 01:15:20;;;;;;;37.15;27.50;;;5.80;99.90;;;;;;5091875;28;20060;-62
2023/04/22 01:17:47;;;;;;;37.20;26.83;;;5.90;99.90;;;;;;5093401;28;20047;-61
2023/04/22 01:20:14;;;;;;;38.72;27.95;;;5.90;99.90;;;;;;5093328;28;20402;-62
2023/04/22 01:22:40;;;;;;;43.30;29.13;;;5.80;99.90;;;;;;5092683;28;20058;-61
2023/04/22 01:25:07;;;;;;;38.35;29.08;;;5.80;99.90;;;;;;5096910;28;20040;-62
2023/04/22 01:27:34;;;;;;;42.20;30.27;;;5.90;99.90;;;;;;5097590;28;20055;-60
2023/04/22 01:30:01;;;;;;;39.95;28.50;;;5.90;99.90;;;;;;5097002;28;20501;-62
2023/04/22 01:32:29;;;;;;;40.90;28.48;;;5.90;99.90;;;;;;5097181;28;20086;-61
2023/04/22 01:34:56;;;;;;;37.15;26.33;;;5.90;99.90;;;;;;5097289;28;20129;-62
2023/04/22 01:37:23;;;;;;;37.63;26.08;;;5.90;99.90;;;;;;5097351;28;20040;-62
2023/04/22 01:39:50;;;;;;;33.63;26.35;;;5.80;99.90;;;;;;5096023;28;20043;-61
2023/04/22 01:42:17;;;;;;;36.70;26.75;;;5.80;99.90;;;;;;5078828;28;20043;-61
2023/04/22 01:44:45;;;;;;;37.42;26.60;;;5.80;99.90;;;;;;5095919;28;20165;-61
2023/04/22 01:47:12;;;;;;;37.75;26.75;;;5.80;99.90;;;;;;5096700;28;20040;-62
2023/04/22 01:49:39;;;;;;;37.80;27.98;;;5.80;99.90;;;;;;5096712;28;20075;-62
2023/04/22 01:52:06;;;;;;;38.03;28.15;;;5.80;99.90;;;;;;5097055;28;20044;-61
2023/04/22 01:54:33;;;;;;;40.55;28.98;;;5.80;99.90;;;;;;5096875;28;20230;-61
2023/04/22 01:57:00;;;;;;;39.70;28.40;;;5.70;99.90;;;;;;5094969;28;20048;-61
2023/04/22 01:59:27;;;;;;;36.85;27.42;;;5.80;99.90;;;;;;5094992;28;20055;-61
2023/04/22 02:01:54;;;;;;;37.70;28.63;;;5.80;99.90;;;;;;5095108;28;20510;-60
2023/04/22 02:04:21;;;;;;;39.03;27.27;;;5.80;99.90;;;;;;5096917;28;20105;-62
2023/04/22 02:06:49;;;;;;;38.72;28.63;;;5.80;99.90;;;;;;5095503;28;20487;-62
2023/04/22 02:09:15;;;;;;;39.97;28.52;;;5.80;99.90;;;;;;5095076;28;20090;-62
2023/04/22 02:11:42;;;;;;;42.00;28.75;;;5.80;99.90;;;;;;5095145;28;20048;-62
2023/04/22 02:14:09;;;;;;;42.47;27.85;;;5.80;99.90;;;;;;5096403;28;20051;-62
2023/04/22 02:16:36;;;;;;;37.97;27.42;;;5.70;99.90;;;;;;5095125;28;20052;-61
2023/04/22 02:19:02;;;;;;;40.05;28.85;;;5.80;99.90;;;;;;5096375;28;20036;-60
2023/04/22 02:21:31;;;;;;;40.10;28.75;;;5.80;99.90;;;;;;5096100;28;20123;-62
2023/04/22 02:23:57;;;;;;;42.40;30.23;;;5.70;99.90;;;;;;5094715;28;20442;-60
2023/04/22 02:26:27;;;;;;;40.80;29.33;;;5.80;99.90;;;;;;5095000;28;20401;-61
2023/04/22 02:28:53;;;;;;;39.75;29.08;;;5.80;99.90;;;;;;5094892;28;20492;-62
2023/04/22 02:31:20;;;;;;;38.88;28.38;;;5.80;99.90;;;;;;5096190;28;20040;-61
2023/04/22 02:33:47;;;;;;;39.08;28.05;;;5.80;99.90;;;;;;5094687;28;20515;-62
2023/04/22 02:36:14;;;;;;;39.88;28.85;;;5.80;99.90;;;;;;5095855;28;20501;-61
2023/04/22 02:38:41;;;;;;;42.47;30.02;;;5.80;99.90;;;;;;5094648;28;20048;-62
2023/04/22 02:41:08;;;;;;;42.33;29.77;;;5.80;99.90;;;;;;5095826;28;20068;-62
2023/04/22 02:43:35;;;;;;;38.13;28.40;;;5.70;99.90;;;;;;5094722;28;20040;-62
2023/04/22 02:46:02;;;;;;;40.63;28.73;;;5.80;99.90;;;;;;5095511;28;20440;-61
2023/04/22 02:48:29;;;;;;;40.17;29.63;;;5.70;99.90;;;;;;5094243;28;20040;-61
2023/04/22 02:50:55;;;;;;;44.67;29.25;;;5.80;99.90;;;;;;5094020;28;20510;-61
2023/04/22 02:53:22;;;;;;;39.90;28.65;;;5.80;99.90;;;;;;5095400;28;20047;-62
2023/04/22 02:55:51;;;;;;;45.53;29.08;;;5.80;99.90;;;;;;5095276;28;20123;-62
2023/04/22 02:58:18;;;;;;;37.75;27.77;;;5.80;99.90;;;;;;5094554;28;20098;-62
2023/04/22 03:00:44;;;;;;;43.75;29.90;;;5.80;99.90;;;;;;5094380;28;20040;-61
2023/04/22 03:03:11;;;;;;;41.10;29.55;;;5.80;99.90;;;;;;5095728;28;20040;-61
2023/04/22 03:05:39;;;;;;;45.70;29.98;;;5.70;99.90;;;;;;5093811;28;20127;-62
2023/04/22 03:08:06;;;;;;;40.50;29.17;;;5.70;99.90;;;;;;5093934;28;20048;-62
2023/04/22 03:10:32;;;;;;;39.45;28.65;;;5.60;99.90;;;;;;5094436;28;20036;-65
2023/04/22 03:12:59;;;;;;;41.70;27.92;;;5.60;99.90;;;;;;5094082;28;20079;-62
2023/04/22 03:15:26;;;;;;;42.30;29.15;;;5.50;99.90;;;;;;5095157;28;20398;-61
2023/04/22 03:17:53;;;;;;;39.10;28.50;;;5.60;99.90;;;;;;5093430;28;20127;-61
2023/04/22 03:20:22;;;;;;;39.55;29.10;;;5.50;99.90;;;;;;5093879;28;20063;-61
2023/04/22 03:22:49;;;;;;;40.53;28.75;;;5.50;99.90;;;;;;5093630;28;20043;-62
2023/04/22 03:25:15;;;;;;;40.05;27.80;;;5.50;99.90;;;;;;5095349;28;20048;-62
2023/04/22 03:27:48;;;;;;;40.30;27.60;;;5.50;99.90;;;;;;5093737;28;20055;-62
2023/04/22 03:30:15;;;;;;;44.97;28.15;;;5.50;99.90;;;;;;5093879;28;20386;-61
2023/04/22 03:32:42;;;;;;;37.90;26.50;;;5.50;99.90;;;;;;5093444;28;20040;-61
2023/04/22 03:35:32;;;;;;;38.35;26.58;;;5.50;99.90;;;;;;5089267;28;20052;-61
2023/04/22 03:38:00;;;;;;;38.63;26.98;;;5.40;99.90;;;;;;5093785;28;20130;-62
2023/04/22 03:40:31;;;;;;;40.35;28.77;;;5.40;99.90;;;;;;5093337;28;20038;-61
2023/04/22 03:42:59;;;;;;;35.75;26.33;;;5.30;99.90;;;;;;5093356;28;20487;-62
2023/04/22 03:45:26;;;;;;;37.03;25.95;;;5.30;99.90;;;;;;5092908;28;20055;-62
2023/04/22 03:48:16;;;;;;;38.72;25.63;;;5.30;99.90;;;;;;5086389;28;20135;-62
2023/04/22 03:50:47;;;;;;;37.47;26.08;;;5.30;99.90;;;;;;5093045;28;20395;-62
2023/04/22 03:53:15;;;;;;;38.40;26.83;;;5.30;99.90;;;;;;5093522;28;20040;-60
2023/04/22 03:55:42;;;;;;;40.22;26.77;;;5.30;99.90;;;;;;5092519;28;20085;-61
2023/04/22 03:58:11;;;;;;;40.33;26.67;;;5.30;99.90;;;;;;5093466;28;20050;-61
2023/04/22 04:00:38;;;;;;;42.97;28.58;;;5.20;99.90;;;;;;5093379;28;20039;-62
2023/04/22 04:03:09;;;;;;;42.03;28.00;;;5.20;99.90;;;;;;5093384;28;20051;-61
2023/04/22 04:05:37;;;;;;;39.63;26.98;;;5.20;99.90;;;;;;5093266;28;20109;-62
2023/04/22 04:08:04;;;;;;;38.78;27.13;;;5.20;99.90;;;;;;5092781;28;20126;-61
2023/04/22 04:10:31;;;;;;;39.67;27.70;;;5.30;99.90;;;;;;5093086;28;20052;-62
2023/04/22 04:12:59;;;;;;;40.95;27.65;;;5.30;99.90;;;;;;5092688;28;20444;-61
2023/04/22 04:15:29;;;;;;;42.05;27.92;;;5.30;99.90;;;;;;5092720;28;20048;-62
2023/04/22 04:17:56;;;;;;;42.17;27.42;;;5.30;99.90;;;;;;5094286;28;20056;-62
2023/04/22 04:20:25;;;;;;;41.85;28.67;;;5.30;99.90;;;;;;5092864;28;20059;-62
2023/04/22 04:22:52;;;;;;;38.20;26.63;;;5.30;99.90;;;;;;5092495;28;20090;-62
2023/04/22 04:25:20;;;;;;;41.13;28.55;;;5.30;99.90;;;;;;5093089;28;20036;-62
2023/04/22 04:27:46;;;;;;;41.30;27.50;;;5.30;99.90;;;;;;5092240;28;20456;-61
2023/04/22 04:30:15;;;;;;;41.65;28.25;;;5.30;99.90;;;;;;5092304;28;20040;-62
2023/04/22 04:32:47;;;;;;;41.72;27.35;;;5.40;99.90;;;;;;5092690;28;20060;-61
2023/04/22 04:35:17;;;;;;;38.30;26.08;;;5.40;99.90;;;;;;5092448;28;20048;-61
2023/04/22 04:37:52;;;;;;;38.40;25.55;;;5.40;99.90;;;;;;5092962;28;20043;-60
2023/04/22 04:40:20;;;;;;;39.85;26.23;;;5.30;99.90;;;;;;5092479;28;20047;-62
2023/04/22 04:43:07;;;;;;;37.85;26.52;;;5.40;99.90;;;;;;5093509;28;20044;-61
2023/04/22 04:45:46;;;;;;;39.97;27.02;;;5.40;99.90;;;;;;5092882;28;20070;-62
2023/04/22 04:48:23;;;;;;;39.50;26.90;;;5.40;99.90;;;;;;5092722;28;20399;-61
2023/04/22 04:50:55;;;;;;;39.60;27.15;;;5.40;99.90;;;;;;5092305;28;20052;-62
2023/04/22 04:53:25;;;;;;;38.10;27.25;;;5.50;99.90;;;;;;5092213;28;20426;-61
2023/04/22 04:55:52;;;;;;;37.65;26.40;;;5.50;99.90;;;;;;5092584;28;20052;-61
2023/04/22 04:58:21;;;;;;;37.63;27.58;;;5.50;99.90;;;;;;5079817;28;20552;-61
2023/04/22 05:01:00;;;;;;;40.20;27.25;;;5.50;99.90;;;;;;5096489;28;20048;-62
2023/04/22 05:03:27;;;;;;;40.35;27.75;;;5.50;99.90;;;;;;5097038;28;20055;-62
2023/04/22 05:05:54;;;;;;;38.97;26.77;;;5.50;99.90;;;;;;5096797;28;20031;-62
2023/04/22 05:08:21;;;;;;;38.15;26.88;;;5.50;99.90;;;;;;5079867;28;20479;-62
2023/04/22 05:10:50;;;;;;;36.05;26.23;;;5.50;99.90;;;;;;5096109;28;20040;-62
2023/04/22 05:13:18;;;;;;;38.25;26.42;;;5.50;99.90;;;;;;5096462;28;20059;-61
2023/04/22 05:15:46;;;;;;;39.28;26.45;;;5.50;99.90;;;;;;5096570;28;20129;-62
2023/04/22 05:18:13;;;;;;;35.45;26.65;;;5.60;99.90;;;;;;5096689;28;20051;-61
2023/04/22 05:20:40;;;;;;;37.33;26.83;;;5.60;99.90;;;;;;5096090;28;20139;-62
2023/04/22 05:23:07;;;;;;;36.53;26.60;;;5.60;99.90;;;;;;5096036;28;20044;-62
2023/04/22 05:25:34;;;;;;;37.17;26.92;;;5.60;99.90;;;;;;5096492;28;20123;-62
2023/04/22 05:28:07;;;;;;;38.97;27.65;;;5.60;99.90;;;;;;5095919;28;20047;-61
2023/04/22 05:30:42;;;;;;;38.72;26.88;;;5.60;99.90;;;;;;5096003;28;20052;-60
2023/04/22 05:33:09;;;;;;;39.47;27.17;;;5.60;99.90;;;;;;5095748;28;20044;-62
2023/04/22 05:35:36;;;;;;;35.10;26.50;;;5.60;99.90;;;;;;5096038;28;20043;-62
2023/04/22 05:38:02;;;;;;;38.65;26.30;;;5.70;99.90;;;;;;5095600;28;20040;-62
2023/04/22 05:40:31;;;;;;;35.45;26.13;;;5.70;99.90;;;;;;5096191;28;20040;-62
2023/04/22 05:42:59;;;;;;;37.97;27.20;;;5.80;99.90;;;;;;5095732;28;20127;-61
2023/04/22 05:45:26;;;;;;;37.13;26.40;;;5.80;99.90;;;;;;5096753;28;20089;-61
2023/04/22 05:47:52;;;;;;;38.65;26.42;;;5.90;99.90;;;;;;5095419;28;20506;-61
2023/04/22 05:50:21;;;;;;;38.10;27.30;;;5.90;99.90;;;;;;5095240;28;20139;-61
2023/04/22 05:52:57;;;;;;;37.78;26.67;;;5.90;99.90;;;;;;5096148;28;20070;-62
2023/04/22 05:55:26;;;;;;;35.92;26.73;;;5.90;99.90;;;;;;5095908;28;20386;-61
2023/04/22 05:57:53;;;;;;;38.40;27.38;;;5.90;99.90;;;;;;5095800;28;20098;-62
2023/04/22 06:00:40;;;;;;;37.83;26.52;;;6.00;99.90;;;;;;5096473;28;20051;-61
2023/04/22 06:03:31;;;;;;;43.47;28.77;;;6.00;99.90;;;;;;5095855;28;20051;-61
2023/04/22 06:05:59;;;;;;;36.65;26.95;;;6.10;99.90;;;;;;5096348;28;20043;-62
2023/04/22 06:08:26;;;;;;;38.17;27.33;;;6.00;99.90;;;;;;5095668;28;20043;-60
2023/04/22 06:10:52;;;;;;;40.00;27.48;;;6.10;99.90;;;;;;5096394;28;20052;-62
2023/04/22 06:13:20;;;;;;;35.90;26.67;;;6.10;99.90;;;;;;5095291;28;20066;-61
2023/04/22 06:15:47;;;;;;;39.67;27.33;;;6.10;99.90;;;;;;5095376;28;20522;-62
2023/04/22 06:18:14;;;;;;;37.20;28.88;;;6.20;99.90;;;;;;5096585;28;20419;-62
2023/04/22 06:20:41;;;;;;;41.95;28.27;;;6.30;99.90;;;;;;5094938;28;20082;-60
2023/04/22 06:23:08;;;;;;;42.70;29.60;;;6.30;99.90;;;;;;5094663;28;20487;-61
2023/04/22 06:25:34;;;;;;;43.17;29.30;;;6.30;99.90;;;;;;5094762;28;20435;-61
2023/04/22 06:28:01;;;;;;;41.05;29.48;;;6.40;99.90;;;;;;5094893;28;20071;-61
2023/04/22 06:30:29;;;;;;;38.95;28.45;;;6.40;99.90;;;;;;5094652;28;20477;-61
2023/04/22 06:32:56;;;;;;;40.35;29.10;;;6.50;99.90;;;;;;5095536;28;20447;-62
2023/04/22 06:35:24;;;;;;;40.97;30.58;;;6.70;99.90;;;;;;5095262;28;20048;-61
2023/04/22 06:37:54;;;;;;;43.70;29.17;;;6.80;99.90;;;;;;5095024;28;20123;-61
2023/04/22 06:40:25;;;;;;;47.53;32.25;;;6.90;99.90;;;;;;5095038;28;20046;-62
2023/04/22 06:43:10;;;;;;;44.97;30.90;;;7.00;99.90;;;;;;5095359;28;20515;-62
2023/04/22 06:46:09;;;;;;;41.30;29.15;;;7.10;99.90;;;;;;5061709;28;20048;-61
2023/04/22 06:48:54;;;;;;;40.20;28.35;;;7.10;99.90;;;;;;5095832;28;20058;-62
2023/04/22 06:51:39;;;;;;;40.50;29.63;;;7.10;99.90;;;;;;5095825;28;20508;-61
2023/04/22 06:54:07;;;;;;;43.45;28.90;;;7.20;99.90;;;;;;5078099;28;20048;-62
2023/04/22 06:56:34;;;;;;;43.72;31.42;;;7.20;99.90;;;;;;5094291;28;20052;-62
2023/04/22 06:59:01;;;;;;;44.35;30.77;;;7.20;99.90;;;;;;5095511;28;20048;-62
2023/04/22 07:01:29;;;;;;;50.80;34.05;;;7.20;99.90;;;;;;5094182;28;20036;-62
2023/04/22 07:03:56;;;;;;;48.22;33.17;;;7.30;99.90;;;;;;5094004;28;20502;-62
2023/04/22 07:06:23;;;;;;;51.03;34.85;;;7.30;99.90;;;;;;5093975;28;20059;-62
2023/04/22 07:08:50;;;;;;;50.97;34.42;;;7.40;99.90;;;;;;5093876;28;20495;-61
2023/04/22 07:11:16;;;;;;;60.40;37.60;;;7.40;99.90;;;;;;5095600;28;20040;-62
2023/04/22 07:13:59;;;;;;;58.15;37.85;;;7.50;99.90;;;;;;5094423;28;20390;-60
2023/04/22 07:16:27;;;;;;;59.78;40.92;;;7.60;99.90;;;;;;5095501;28;20048;-60
2023/04/22 07:18:54;;;;;;;55.80;38.10;;;7.70;99.90;;;;;;5095338;28;20046;-60
2023/04/22 07:21:21;;;;;;;63.25;41.25;;;7.80;99.90;;;;;;5095440;28;20040;-61
2023/04/22 07:23:47;;;;;;;57.47;41.53;;;7.80;99.90;;;;;;5095573;28;20036;-61
2023/04/22 07:26:14;;;;;;;59.80;42.20;;;7.90;99.90;;;;;;5095489;28;20164;-61
2023/04/22 07:28:41;;;;;;;62.60;42.85;;;7.90;99.90;;;;;;5095259;28;20044;-61
2023/04/22 07:31:08;;;;;;;66.78;43.58;;;8.00;99.90;;;;;;5095038;28;20483;-61
2023/04/22 07:33:35;;;;;;;65.03;46.10;;;8.00;99.90;;;;;;5095146;28;20067;-60
2023/04/22 07:36:01;;;;;;;63.75;43.67;;;8.00;99.90;;;;;;5093399;28;20093;-61
2023/04/22 07:38:28;;;;;;;63.78;45.80;;;8.10;99.90;;;;;;5094434;28;20434;-61
2023/04/22 07:40:55;;;;;;;69.15;47.67;;;8.20;99.90;;;;;;5094806;28;20089;-61
2023/04/22 07:43:22;;;;;;;62.20;44.88;;;8.30;99.90;;;;;;5094983;28;20478;-62
2023/04/22 07:45:48;;;;;;;61.72;44.30;;;8.40;99.90;;;;;;5093261;28;20497;-60
2023/04/22 07:48:15;;;;;;;67.95;47.42;;;8.50;99.90;;;;;;5094532;28;20123;-60
2023/04/22 07:50:42;;;;;;;66.63;48.17;;;8.60;99.90;;;;;;5093497;28;20048;-61
2023/04/22 07:53:09;;;;;;;61.63;45.47;;;8.70;99.90;;;;;;5094736;28;20467;-61
2023/04/22 07:55:36;;;;;;;59.42;43.45;;;8.70;99.90;;;;;;5094858;28;20047;-61
2023/04/22 07:58:05;;;;;;;63.97;45.63;;;8.80;99.90;;;;;;5094190;28;20085;-62
2023/04/22 08:00:32;;;;;;;60.00;41.33;;;8.90;99.90;;;;;;5094267;28;20040;-61
2023/04/22 08:02:59;;;;;;;58.58;40.15;;;8.90;99.90;;;;;;5094735;28;20050;-61
2023/04/22 08:05:26;;;;;;;49.97;36.22;;;9.00;99.90;;;;;;5094247;28;20051;-60
2023/04/22 08:07:53;;;;;;;44.80;32.40;;;9.00;99.90;;;;;;5094424;28;20048;-61
2023/04/22 08:10:19;;;;;;;47.10;34.22;;;9.00;99.90;;;;;;5093931;28;20044;-61
2023/04/22 08:12:46;;;;;;;47.30;34.45;;;9.10;99.90;;;;;;5094300;28;20123;-61
2023/04/22 08:15:13;;;;;;;41.53;29.38;;;9.20;99.90;;;;;;5094431;28;20063;-61
2023/04/22 08:17:40;;;;;;;41.10;30.05;;;9.20;99.90;;;;;;5095673;28;20464;-61
2023/04/22 08:20:06;;;;;;;45.03;32.60;;;9.30;99.90;;;;;;5093932;28;20036;-62
2023/04/22 08:22:34;;;;;;;41.28;30.38;;;9.40;99.90;;;;;;5093907;28;20119;-61
2023/04/22 08:25:01;;;;;;;36.65;28.70;;;9.60;99.90;;;;;;5094090;28;20074;-62
2023/04/22 08:27:28;;;;;;;39.80;30.25;;;9.70;99.90;;;;;;5094244;28;20694;-62
2023/04/22 08:29:54;;;;;;;41.00;29.48;;;9.80;99.90;;;;;;5093935;28;20036;-62
2023/04/22 08:32:25;;;;;;;40.42;27.27;;;9.90;99.90;;;;;;5093956;28;20043;-61
2023/04/22 08:34:51;;;;;;;21.70;16.98;;;10.00;99.90;;;;;;5093971;28;20040;-61
2023/04/22 08:37:23;;;;;;;24.60;17.67;;;10.10;99.90;;;;;;5093971;28;20386;-60
2023/04/22 08:39:49;;;;;;;17.45;14.05;;;10.20;99.90;;;;;;5093972;28;20036;-59
2023/04/22 08:42:16;;;;;;;17.95;14.35;;;10.30;99.90;;;;;;5093683;28;20051;-61
2023/04/22 08:44:43;;;;;;;15.35;12.40;;;10.40;99.90;;;;;;5094131;28;20093;-59
2023/04/22 08:47:10;;;;;;;13.07;9.70;;;10.50;99.90;;;;;;5094127;28;20217;-61
2023/04/22 08:49:37;;;;;;;12.45;9.13;;;10.60;99.90;;;;;;5093469;28;20052;-61
2023/04/22 08:52:04;;;;;;;12.15;9.77;;;10.70;99.90;;;;;;5093679;28;20455;-60
2023/04/22 08:54:32;;;;;;;17.13;10.32;;;10.70;99.90;;;;;;5092920;28;20048;-60
2023/04/22 08:56:59;;;;;;;10.80;9.02;;;10.80;99.90;;;;;;5092157;28;20391;-61
2023/04/22 08:59:26;;;;;;;13.38;9.30;;;11.00;99.90;;;;;;5092163;28;20064;-61
2023/04/22 09:01:53;;;;;;;10.70;8.65;;;11.10;99.90;;;;;;5092160;28;20036;-60
2023/04/22 09:04:19;;;;;;;10.68;8.88;;;11.20;99.90;;;;;;5092588;28;20051;-60
2023/04/22 09:06:46;;;;;;;11.60;8.40;;;11.30;99.90;;;;;;5092273;28;20119;-61
2023/04/22 09:09:13;;;;;;;11.60;8.50;;;11.40;99.90;;;;;;5090833;28;20409;-60
2023/04/22 09:11:40;;;;;;;11.30;8.68;;;11.40;99.90;;;;;;5092005;28;20494;-61
2023/04/22 09:14:07;;;;;;;12.85;8.52;;;11.40;99.90;;;;;;5092069;28;20063;-60
2023/04/22 09:16:33;;;;;;;14.05;10.48;;;11.50;99.90;;;;;;5092059;28;20076;-60
2023/04/22 09:19:00;;;;;;;14.10;10.75;;;11.70;99.90;;;;;;5092729;28;20487;-58
2023/04/22 09:21:27;;;;;;;13.27;9.90;;;11.80;99.90;;;;;;5093199;28;20036;-61
2023/04/22 09:23:54;;;;;;;13.02;9.68;;;11.80;99.90;;;;;;5093548;28;20454;-61
2023/04/22 09:26:21;;;;;;;12.20;9.88;;;12.00;99.90;;;;;;5075376;28;20477;-58
2023/04/22 09:28:47;;;;;;;12.90;9.98;;;12.10;99.90;;;;;;5092817;28;20446;-61
2023/04/22 09:31:14;;;;;;;12.10;9.90;;;12.10;99.90;;;;;;5093629;28;20469;-60
2023/04/22 09:33:41;;;;;;;11.07;9.75;;;12.10;99.90;;;;;;5093383;28;20036;-59
2023/04/22 09:36:08;;;;;;;12.30;10.52;;;12.20;99.90;;;;;;5093393;28;20440;-61
2023/04/22 09:38:34;;;;;;;11.30;10.10;;;12.20;99.90;;;;;;5091856;28;20078;-61
2023/04/22 09:41:01;;;;;;;13.90;10.90;;;12.20;99.90;;;;;;5091856;28;20093;-60
2023/04/22 09:43:28;;;;;;;12.52;11.13;;;12.30;99.90;;;;;;5093653;28;20044;-61
2023/04/22 09:45:55;;;;;;;12.27;10.70;;;12.40;99.90;;;;;;5095711;28;20036;-61
2023/04/22 09:48:22;;;;;;;13.70;11.98;;;12.40;99.90;;;;;;5096846;28;20448;-61
2023/04/22 09:50:49;;;;;;;13.15;11.00;;;12.40;99.90;;;;;;5101362;28;20043;-61
2023/04/22 09:53:15;;;;;;;14.02;11.63;;;12.40;99.90;;;;;;5116189;28;20040;-60
2023/04/22 09:55:42;;;;;;;12.07;10.75;;;12.30;99.90;;;;;;5097711;28;20063;-61
2023/04/22 09:58:09;;;;;;;15.13;11.80;;;12.30;99.90;;;;;;5095444;28;20097;-61
2023/04/22 10:00:36;;;;;;;14.27;12.77;;;12.30;99.90;;;;;;5096646;28;20081;-62
2023/04/22 10:03:03;;;;;;;12.63;11.32;;;12.30;99.90;;;;;;5097026;28;20044;-60
2023/04/22 10:05:30;;;;;;;18.08;12.40;;;12.30;99.90;;;;;;5096840;28;20051;-61
2023/04/22 10:07:57;;;;;;;12.50;11.20;;;12.30;99.90;;;;;;5096799;28;20036;-62
2023/04/22 10:10:24;;;;;;;13.30;11.93;;;12.40;99.90;;;;;;5095284;28;20054;-61
2023/04/22 10:12:51;;;;;;;12.82;11.15;;;12.40;99.90;;;;;;5096539;28;20052;-63
2023/04/22 10:15:17;;;;;;;11.98;10.00;;;12.50;99.90;;;;;;5096603;28;20490;-63
2023/04/22 10:17:44;;;;;;;14.40;10.52;;;12.60;99.90;;;;;;5103896;28;20066;-63
2023/04/22 10:20:12;;;;;;;14.85;11.45;;;12.50;99.90;;;;;;5104843;28;20051;-62
2023/04/22 10:22:39;;;;;;;12.32;11.05;;;12.50;99.90;;;;;;5096396;28;20540;-61
2023/04/22 10:25:06;;;;;;;11.95;10.07;;;12.50;99.90;;;;;;5096247;28;20082;-61
2023/04/22 10:27:33;;;;;;;11.52;9.90;;;12.60;99.90;;;;;;5097703;28;20127;-62
2023/04/22 10:29:59;;;;;;;10.73;9.70;;;12.60;99.90;;;;;;5096285;28;20550;-63
2023/04/22 10:32:26;;;;;;;11.65;10.45;;;12.70;99.90;;;;;;5096623;28;20067;-61
2023/04/22 10:34:53;;;;;;;12.85;9.23;;;12.70;99.90;;;;;;5096084;28;20424;-62
2023/04/22 10:37:20;;;;;;;11.57;9.88;;;12.70;99.90;;;;;;5096212;28;20040;-61
2023/04/22 10:39:47;;;;;;;12.38;10.15;;;12.80;99.90;;;;;;5095640;28;20047;-62
2023/04/22 10:42:16;;;;;;;12.65;10.80;;;13.00;99.90;;;;;;5096214;28;20060;-62
2023/04/22 10:44:43;;;;;;;11.77;10.27;;;13.20;99.90;;;;;;5095923;28;20114;-62
2023/04/22 10:47:10;;;;;;;12.75;9.82;;;13.30;99.90;;;;;;5094454;28;20127;-62
2023/04/22 10:49:37;;;;;;;10.73;9.63;;;13.50;99.90;;;;;;5100662;28;20048;-61
2023/04/22 10:52:04;;;;;;;13.25;9.88;;;13.50;99.90;;;;;;5114037;28;20047;-62
2023/04/22 10:54:35;;;;;;;13.75;9.32;;;13.60;99.90;;;;;;5105209;28;20479;-62
2023/04/22 10:57:02;;;;;;;11.50;9.02;;;13.70;99.90;;;;;;5104686;28;20109;-62
2023/04/22 10:59:29;;;;;;;11.70;10.02;;;13.80;99.90;;;;;;5110487;28;20122;-62
2023/04/22 11:01:55;;;;;;;10.43;8.93;;;13.90;99.90;;;;;;5107425;28;20391;-62
2023/04/22 11:04:23;;;;;;;10.50;9.40;;;13.80;99.60;;;;;;5103749;28;20059;-59
2023/04/22 11:06:50;;;;;;;11.65;8.20;;;13.90;99.60;;;;;;5109601;28;20040;-60
2023/04/22 11:09:16;;;;;;;9.80;7.90;;;14.00;98.60;;;;;;5102840;28;20101;-61
2023/04/22 11:11:43;;;;;;;9.65;8.43;;;14.00;98.20;;;;;;5099283;28;20501;-60
2023/04/22 11:14:10;;;;;;;9.77;8.65;;;14.00;97.40;;;;;;5105198;28;20067;-60
2023/04/22 11:16:37;;;;;;;9.88;8.50;;;14.00;98.00;;;;;;5108757;28;20052;-59
2023/04/22 11:19:04;;;;;;;9.55;8.55;;;14.00;98.20;;;;;;5101844;28;20494;-60
2023/04/22 11:21:31;;;;;;;15.88;9.35;;;14.00;99.00;;;;;;5111413;28;20066;-60
2023/04/22 11:24:01;;;;;;;13.23;9.13;;;14.10;99.10;;;;;;5096470;28;20032;-58
2023/04/22 11:26:28;;;;;;;9.35;7.97;;;14.10;98.50;;;;;;5099899;28;20028;-61
2023/04/22 11:28:55;;;;;;;9.45;7.60;;;14.00;97.90;;;;;;5101316;28;20039;-61
2023/04/22 11:31:22;;;;;;;9.25;8.20;;;14.00;98.20;;;;;;5100450;28;20040;-59
2023/04/22 11:33:49;;;;;;;10.90;9.30;;;14.00;96.90;;;;;;5099697;28;20056;-60
2023/04/22 11:36:18;;;;;;;19.42;12.55;;;13.90;96.80;;;;;;5106438;28;20035;-61
2023/04/22 11:38:45;;;;;;;12.88;9.50;;;13.80;96.80;;;;;;5094955;28;20566;-61
2023/04/22 11:41:12;;;;;;;8.07;7.28;;;13.80;96.80;;;;;;5100153;28;20121;-60
2023/04/22 11:43:39;;;;;;;9.00;7.35;;;13.80;97.10;;;;;;5110426;28;20509;-62
2023/04/22 11:46:07;;;;;;;9.05;7.20;;;13.90;96.50;;;;;;5107589;28;20429;-60
2023/04/22 11:48:34;;;;;;;11.98;8.40;;;13.90;96.70;;;;;;5100107;28;20042;-60
2023/04/22 11:51:01;;;;;;;9.40;8.40;;;14.00;96.50;;;;;;5097041;28;20105;-61
2023/04/22 11:53:28;;;;;;;10.18;8.27;;;14.00;96.50;;;;;;5100901;28;20074;-60
2023/04/22 11:55:54;;;;;;;12.00;8.23;;;14.00;97.10;;;;;;5097845;28;20048;-60
2023/04/22 11:58:21;;;;;;;10.07;8.75;;;14.00;96.70;;;;;;5098770;28;20118;-63
2023/04/22 12:00:48;;;;;;;10.88;8.73;;;14.00;96.60;;;;;;5095561;28;20410;-60
2023/04/22 12:03:15;;;;;;;9.43;7.78;;;14.10;96.10;;;;;;5101567;28;20421;-60
2023/04/22 12:05:42;;;;;;;8.10;7.20;;;14.10;95.90;;;;;;5099493;28;20387;-60
2023/04/22 12:08:08;;;;;;;9.73;7.57;;;14.10;95.30;;;;;;5103645;28;20031;-60
2023/04/22 12:10:35;;;;;;;9.45;8.13;;;14.10;95.20;;;;;;5097796;28;20048;-59
2023/04/22 12:13:02;;;;;;;9.98;7.82;;;14.10;95.00;;;;;;5094056;28;20048;-60
2023/04/22 12:15:29;;;;;;;8.65;7.68;;;14.10;95.10;;;;;;5093766;28;20040;-58
2023/04/22 12:17:56;;;;;;;10.57;7.97;;;14.10;94.70;;;;;;5099452;28;20131;-60
2023/04/22 12:20:23;;;;;;;8.48;7.57;;;14.00;95.30;;;;;;5098263;28;20034;-59
2023/04/22 12:22:50;;;;;;;10.02;7.97;;;14.10;94.90;;;;;;5120510;27;20038;-59
2023/04/22 12:25:17;;;;;;;11.88;6.97;;;14.10;94.80;;;;;;5093309;28;20031;-59
2023/04/22 12:27:44;;;;;;;9.77;7.55;;;14.10;95.00;;;;;;5098295;28;20097;-59
2023/04/22 12:30:10;;;;;;;9.10;7.53;;;14.30;95.30;;;;;;5100451;28;20097;-59
2023/04/22 12:32:37;;;;;;;9.73;7.00;;;14.30;94.90;;;;;;5108528;28;20035;-60
2023/04/22 12:35:04;;;;;;;9.95;7.20;;;14.30;95.40;;;;;;5107182;28;20043;-59
2023/04/22 12:37:30;;;;;;;8.07;7.18;;;14.40;95.20;;;;;;5095199;28;20498;-58
2023/04/22 12:39:57;;;;;;;9.20;7.32;;;14.50;94.90;;;;;;5099176;28;20093;-59